Time;durP1;ratioP1;P1;durP2;ratioP2;P2;SDS_P1;SDS_P2;PMS_P1;PMS_P2;Temp;Humidity;BMP_temperature;BMP_pressure;BME280_temperature;BME280_humidity;BME280_pressure;Samples;Min_cycle;Max_cycle;Signal;HPM_P1;HPM_P2
2023/05/09 00:00:55;;;;;;;7.60;7.00;;;20.40;99.90;;;;;;4987835;28;20450;-74
2023/05/09 00:03:23;;;;;;;7.87;7.17;;;20.40;99.90;;;;;;4972334;28;20540;-74
2023/05/09 00:05:51;;;;;;;7.50;6.80;;;20.40;99.90;;;;;;4990066;28;20921;-74
2023/05/09 00:08:22;;;;;;;7.93;7.03;;;20.30;99.80;;;;;;4990392;28;20421;-74
2023/05/09 00:10:48;;;;;;;7.20;6.60;;;20.30;99.80;;;;;;4979221;28;20418;-74
2023/05/09 00:13:16;;;;;;;7.27;6.60;;;20.30;99.90;;;;;;4939447;28;20454;-74
2023/05/09 00:15:43;;;;;;;8.30;7.50;;;20.30;99.90;;;;;;4955709;28;20441;-74
2023/05/09 00:18:10;;;;;;;7.83;7.03;;;20.30;99.90;;;;;;4955294;28;20431;-74
2023/05/09 00:20:36;;;;;;;7.57;6.87;;;20.30;99.90;;;;;;4955584;28;20556;-74
2023/05/09 00:23:04;;;;;;;7.60;6.90;;;20.30;99.90;;;;;;4971730;28;20432;-75
2023/05/09 00:25:36;;;;;;;7.37;6.77;;;20.30;99.90;;;;;;4991934;28;20425;-75
2023/05/09 00:28:05;;;;;;;7.30;6.70;;;20.30;99.90;;;;;;4974380;28;20789;-74
2023/05/09 00:30:31;;;;;;;7.30;6.70;;;20.30;99.90;;;;;;4948540;28;20556;-74
2023/05/09 00:32:57;;;;;;;7.97;7.27;;;20.30;99.90;;;;;;4968052;28;20455;-75
2023/05/09 00:35:23;;;;;;;7.53;6.83;;;20.30;99.90;;;;;;4974476;28;20501;-75
2023/05/09 00:37:48;;;;;;;7.70;7.00;;;20.20;99.90;;;;;;4966206;28;20656;-74
2023/05/09 00:40:15;;;;;;;8.50;7.70;;;20.30;99.90;;;;;;4982368;28;20459;-74
2023/05/09 00:42:40;;;;;;;7.40;6.67;;;20.20;99.90;;;;;;4961964;28;20833;-74
2023/05/09 00:45:08;;;;;;;8.20;7.40;;;20.20;99.90;;;;;;4963229;28;20801;-74
2023/05/09 00:47:42;;;;;;;8.47;7.67;;;20.20;99.90;;;;;;4958414;28;20415;-75
2023/05/09 00:50:08;;;;;;;7.87;7.17;;;20.20;99.90;;;;;;4926986;28;20435;-74
2023/05/09 00:52:35;;;;;;;8.93;8.07;;;20.20;99.90;;;;;;4990585;28;20470;-74
2023/05/09 00:55:02;;;;;;;8.80;7.60;;;20.20;99.90;;;;;;4972336;28;20484;-74
2023/05/09 00:57:30;;;;;;;7.93;7.20;;;20.20;99.90;;;;;;4977908;28;20496;-74
2023/05/09 00:59:59;;;;;;;7.90;7.20;;;20.20;99.90;;;;;;4964922;28;20456;-74
2023/05/09 01:02:27;;;;;;;8.13;7.43;;;20.20;99.90;;;;;;4974010;28;20458;-74
2023/05/09 01:04:53;;;;;;;9.10;7.60;;;20.10;99.90;;;;;;4953914;28;20484;-75
2023/05/09 01:07:40;;;;;;;7.67;7.03;;;20.10;99.90;;;;;;4961030;28;20417;-75
2023/05/09 01:10:28;;;;;;;8.70;8.00;;;20.10;99.90;;;;;;4975646;28;20465;-74
2023/05/09 01:13:18;;;;;;;8.10;7.30;;;20.10;99.90;;;;;;4942159;28;20504;-74
2023/05/09 01:15:58;;;;;;;8.93;8.10;;;20.10;99.90;;;;;;4976587;28;20442;-74
2023/05/09 01:18:36;;;;;;;9.50;7.37;;;20.10;99.90;;;;;;4968758;28;20431;-74
2023/05/09 01:21:14;;;;;;;7.90;7.23;;;20.10;99.90;;;;;;4960909;28;20485;-75
2023/05/09 01:23:43;;;;;;;8.30;7.60;;;20.10;99.90;;;;;;4945467;28;20504;-75
2023/05/09 01:26:18;;;;;;;8.20;7.40;;;20.10;99.90;;;;;;4988592;28;20428;-74
2023/05/09 01:29:17;;;;;;;8.00;7.23;;;20.10;99.90;;;;;;4960347;28;20461;-74
2023/05/09 01:31:50;;;;;;;9.30;8.50;;;20.10;99.90;;;;;;4973231;28;20489;-74
2023/05/09 01:34:19;;;;;;;9.27;8.30;;;20.00;99.90;;;;;;4979716;28;20513;-74
2023/05/09 01:36:49;;;;;;;9.00;8.20;;;20.00;99.90;;;;;;4956073;28;20485;-74
2023/05/09 01:39:17;;;;;;;8.23;7.53;;;20.00;99.90;;;;;;4974094;28;20865;-74
2023/05/09 01:41:42;;;;;;;8.57;7.80;;;20.00;99.90;;;;;;4989707;28;20500;-74
2023/05/09 01:44:11;;;;;;;8.23;7.43;;;20.00;99.90;;;;;;4957516;28;20446;-74
2023/05/09 01:46:40;;;;;;;8.57;7.83;;;20.00;99.90;;;;;;4989878;28;20539;-74
2023/05/09 01:49:10;;;;;;;9.07;7.57;;;20.00;99.90;;;;;;4975283;28;20786;-75
2023/05/09 01:51:43;;;;;;;8.57;7.60;;;20.00;99.90;;;;;;4977384;28;20465;-74
2023/05/09 01:54:12;;;;;;;8.53;7.70;;;20.00;99.90;;;;;;4993231;28;20459;-75
2023/05/09 01:56:43;;;;;;;8.67;7.97;;;20.00;99.90;;;;;;4941579;28;20450;-74
2023/05/09 01:59:14;;;;;;;9.23;8.10;;;19.90;99.90;;;;;;4957277;28;20394;-74
2023/05/09 02:01:43;;;;;;;8.83;8.03;;;20.00;99.90;;;;;;4975697;28;20465;-74
2023/05/09 02:04:14;;;;;;;9.23;8.43;;;19.90;99.90;;;;;;4960565;28;20454;-74
2023/05/09 02:06:43;;;;;;;9.23;8.33;;;20.00;99.90;;;;;;4957281;28;20430;-74
2023/05/09 02:09:10;;;;;;;8.47;7.67;;;19.90;99.90;;;;;;4992504;28;20419;-74
2023/05/09 02:11:36;;;;;;;8.40;7.70;;;19.90;99.90;;;;;;4960316;28;20425;-74
2023/05/09 02:14:05;;;;;;;9.20;8.30;;;19.90;99.90;;;;;;4972565;28;20482;-74
2023/05/09 02:16:34;;;;;;;8.93;8.13;;;19.90;99.90;;;;;;4990867;28;20963;-75
2023/05/09 02:19:06;;;;;;;10.57;8.30;;;19.90;99.90;;;;;;4959327;28;20428;-74
2023/05/09 02:21:32;;;;;;;9.57;8.67;;;19.90;99.90;;;;;;4956725;28;20515;-74
2023/05/09 02:23:58;;;;;;;7.73;7.03;;;19.90;99.90;;;;;;4992348;28;21040;-74
2023/05/09 02:26:25;;;;;;;8.80;8.00;;;19.90;99.90;;;;;;4976032;28;20813;-74
2023/05/09 02:28:55;;;;;;;9.17;8.23;;;19.90;99.90;;;;;;4937658;28;20435;-74
2023/05/09 02:31:26;;;;;;;8.20;7.40;;;19.90;99.90;;;;;;4937696;29;20416;-74
2023/05/09 02:33:53;;;;;;;8.63;7.70;;;19.90;99.90;;;;;;4958958;28;20515;-75
2023/05/09 02:36:22;;;;;;;9.10;8.23;;;19.90;99.90;;;;;;4984608;28;20481;-75
2023/05/09 02:38:48;;;;;;;9.23;8.23;;;19.90;99.90;;;;;;4988497;28;20458;-74
2023/05/09 02:41:15;;;;;;;8.47;7.67;;;19.90;99.90;;;;;;4974434;28;20575;-74
2023/05/09 02:43:41;;;;;;;9.63;8.70;;;19.80;99.90;;;;;;4959138;28;20468;-74
2023/05/09 02:46:09;;;;;;;8.93;8.03;;;19.80;99.90;;;;;;4976058;28;20520;-75
2023/05/09 02:48:36;;;;;;;8.63;7.83;;;19.80;99.90;;;;;;4959881;28;20999;-74
2023/05/09 02:51:03;;;;;;;10.03;9.07;;;19.80;99.90;;;;;;4970445;28;20940;-75
2023/05/09 02:53:29;;;;;;;9.50;8.60;;;19.80;99.90;;;;;;4959674;28;20469;-74
2023/05/09 02:55:58;;;;;;;8.77;8.07;;;19.80;99.90;;;;;;4954984;28;20484;-74
2023/05/09 02:58:24;;;;;;;9.43;8.53;;;19.80;99.90;;;;;;4972443;28;20489;-75
2023/05/09 03:00:52;;;;;;;11.20;9.70;;;19.80;99.90;;;;;;4988244;28;20507;-75
2023/05/09 03:03:18;;;;;;;9.83;8.83;;;19.80;99.90;;;;;;4972191;28;20445;-74
2023/05/09 03:05:45;;;;;;;10.80;9.30;;;19.80;99.90;;;;;;4973603;28;20440;-74
2023/05/09 03:08:18;;;;;;;9.63;8.63;;;19.80;99.90;;;;;;4975793;28;20460;-74
2023/05/09 03:10:44;;;;;;;11.00;9.90;;;19.80;99.90;;;;;;4959269;28;20803;-75
2023/05/09 03:13:12;;;;;;;10.57;9.50;;;19.80;99.90;;;;;;4959467;28;20998;-74
2023/05/09 03:15:38;;;;;;;11.20;10.10;;;19.80;99.90;;;;;;4975376;28;20523;-74
2023/05/09 03:18:07;;;;;;;10.00;9.00;;;19.80;99.90;;;;;;4969575;28;20428;-75
2023/05/09 03:20:36;;;;;;;12.23;10.90;;;19.70;99.90;;;;;;4956676;28;20501;-74
2023/05/09 03:23:03;;;;;;;11.33;10.07;;;19.70;99.90;;;;;;4975364;28;20446;-74
2023/05/09 03:25:29;;;;;;;12.43;11.13;;;19.70;99.90;;;;;;4955337;28;20432;-74
2023/05/09 03:27:59;;;;;;;14.37;11.70;;;19.70;99.90;;;;;;4988068;28;21017;-74
2023/05/09 03:30:26;;;;;;;12.77;11.30;;;19.70;99.90;;;;;;4971973;28;20838;-74
2023/05/09 03:32:52;;;;;;;14.07;12.27;;;19.70;99.90;;;;;;4940016;28;20799;-75
2023/05/09 03:35:20;;;;;;;14.20;11.37;;;19.70;99.90;;;;;;4965357;28;20470;-74
2023/05/09 03:37:51;;;;;;;14.63;13.10;;;19.70;99.90;;;;;;4975495;28;20954;-74
2023/05/09 03:40:22;;;;;;;13.40;11.90;;;19.70;99.90;;;;;;4949958;28;20466;-74
2023/05/09 03:42:55;;;;;;;16.43;13.03;;;19.70;99.90;;;;;;4972093;28;20453;-75
2023/05/09 03:45:23;;;;;;;15.83;13.07;;;19.70;99.90;;;;;;4956607;28;20414;-74
2023/05/09 03:47:51;;;;;;;16.13;12.90;;;19.70;99.90;;;;;;4950677;28;20217;-75
2023/05/09 03:50:22;;;;;;;17.00;14.13;;;19.70;99.90;;;;;;4956700;28;20471;-74
2023/05/09 03:52:50;;;;;;;19.80;15.03;;;19.70;99.90;;;;;;4930868;28;20461;-74
2023/05/09 03:55:16;;;;;;;17.77;14.60;;;19.70;99.90;;;;;;4971629;28;20848;-74
2023/05/09 03:57:45;;;;;;;20.23;15.10;;;19.70;99.90;;;;;;4940038;28;20469;-75
2023/05/09 04:00:11;;;;;;;18.97;15.37;;;19.70;99.90;;;;;;4972841;28;20459;-74
2023/05/09 04:02:44;;;;;;;19.20;15.10;;;19.70;99.90;;;;;;4973726;28;21049;-76
2023/05/09 04:05:19;;;;;;;17.33;14.47;;;19.70;99.90;;;;;;4971827;28;20426;-75
2023/05/09 04:07:48;;;;;;;19.83;14.53;;;19.60;99.90;;;;;;4956937;28;20420;-74
2023/05/09 04:10:17;;;;;;;22.23;16.07;;;19.60;99.90;;;;;;4941569;28;20437;-74
2023/05/09 04:12:46;;;;;;;18.93;15.07;;;19.60;99.90;;;;;;4993045;28;20811;-74
2023/05/09 04:15:14;;;;;;;19.10;16.07;;;19.60;99.90;;;;;;4978333;28;20433;-74
2023/05/09 04:17:46;;;;;;;18.73;16.60;;;19.60;99.90;;;;;;4980331;28;20460;-74
2023/05/09 04:20:14;;;;;;;22.10;15.23;;;19.60;99.90;;;;;;4980492;28;20484;-74
2023/05/09 04:22:44;;;;;;;19.37;16.20;;;19.60;99.90;;;;;;4964316;28;21041;-74
2023/05/09 04:25:13;;;;;;;18.87;15.10;;;19.60;99.90;;;;;;4964048;28;20464;-77
2023/05/09 04:27:39;;;;;;;18.30;15.67;;;19.60;99.90;;;;;;4980094;28;20827;-74
2023/05/09 04:30:36;;;;;;;20.40;15.00;;;19.60;99.90;;;;;;4980726;28;20412;-74
2023/05/09 04:33:06;;;;;;;18.87;15.47;;;19.60;99.90;;;;;;4963992;28;20449;-74
2023/05/09 04:35:32;;;;;;;18.87;15.20;;;19.60;99.90;;;;;;4964014;28;20426;-74
2023/05/09 04:38:01;;;;;;;18.40;15.40;;;19.60;99.90;;;;;;4948189;28;20428;-74
2023/05/09 04:40:28;;;;;;;16.83;14.57;;;19.60;99.90;;;;;;4947879;28;20515;-74
2023/05/09 04:42:57;;;;;;;15.67;13.97;;;19.60;99.90;;;;;;4980081;28;20444;-74
2023/05/09 04:45:26;;;;;;;15.73;13.47;;;19.50;99.90;;;;;;4980055;28;20419;-74
2023/05/09 04:47:53;;;;;;;17.43;13.63;;;19.50;99.90;;;;;;4979787;28;20404;-74
2023/05/09 04:50:20;;;;;;;16.00;13.60;;;19.50;99.90;;;;;;4979631;28;20927;-74
2023/05/09 04:52:48;;;;;;;20.77;14.93;;;19.50;99.90;;;;;;4979703;28;20212;-75
2023/05/09 04:55:19;;;;;;;16.30;13.87;;;19.50;99.90;;;;;;4980188;28;20413;-74
2023/05/09 04:57:47;;;;;;;16.50;14.17;;;19.50;99.90;;;;;;4979485;28;20441;-74
2023/05/09 05:00:17;;;;;;;17.60;13.80;;;19.50;99.90;;;;;;4963471;28;20523;-74
2023/05/09 05:02:45;;;;;;;16.03;13.30;;;19.50;99.90;;;;;;4979623;28;20809;-74
2023/05/09 05:05:11;;;;;;;15.10;13.30;;;19.50;99.90;;;;;;4979615;28;20420;-74
2023/05/09 05:07:45;;;;;;;15.40;12.60;;;19.50;99.90;;;;;;4963567;28;20931;-74
2023/05/09 05:10:17;;;;;;;14.87;13.20;;;19.50;99.90;;;;;;4979413;28;20915;-74
2023/05/09 05:12:47;;;;;;;16.13;13.10;;;19.50;99.90;;;;;;4979381;28;20498;-74
2023/05/09 05:15:19;;;;;;;15.87;13.40;;;19.50;99.90;;;;;;4963831;28;20397;-74
2023/05/09 05:17:49;;;;;;;17.27;13.97;;;19.50;99.90;;;;;;4979365;28;20813;-74
2023/05/09 05:20:26;;;;;;;18.13;13.90;;;19.50;99.90;;;;;;4979130;28;20854;-74
2023/05/09 05:22:53;;;;;;;16.00;14.30;;;19.50;99.90;;;;;;4978197;28;20456;-74
2023/05/09 05:25:22;;;;;;;18.23;13.80;;;19.40;99.90;;;;;;4979149;28;20425;-74
2023/05/09 05:27:50;;;;;;;17.47;15.40;;;19.50;99.90;;;;;;4963478;28;20453;-74
2023/05/09 05:30:19;;;;;;;17.17;12.80;;;19.40;99.90;;;;;;4963169;28;20570;-74
2023/05/09 05:32:50;;;;;;;17.10;14.20;;;19.40;99.90;;;;;;4979021;28;20440;-74
2023/05/09 05:35:22;;;;;;;18.43;14.63;;;19.40;99.90;;;;;;4962761;28;20425;-74
2023/05/09 05:37:52;;;;;;;14.83;12.70;;;19.40;99.90;;;;;;4979072;28;20417;-74
2023/05/09 05:40:25;;;;;;;20.83;14.60;;;19.40;99.90;;;;;;4978787;28;20471;-74
2023/05/09 05:42:53;;;;;;;18.93;14.87;;;19.40;99.90;;;;;;4962891;28;20449;-74
2023/05/09 05:45:19;;;;;;;22.33;15.10;;;19.40;99.90;;;;;;4978810;28;20389;-74
2023/05/09 05:47:49;;;;;;;19.27;14.77;;;19.40;99.90;;;;;;4996134;28;20436;-74
2023/05/09 05:50:15;;;;;;;17.50;14.53;;;19.40;99.90;;;;;;4978741;28;20986;-74
2023/05/09 05:52:48;;;;;;;17.90;14.83;;;19.40;99.90;;;;;;4962609;28;20455;-75
2023/05/09 05:55:16;;;;;;;23.73;17.43;;;19.40;99.90;;;;;;4962612;28;20539;-75
2023/05/09 05:57:42;;;;;;;23.67;15.10;;;19.40;99.90;;;;;;4978404;28;20974;-74
2023/05/09 06:00:16;;;;;;;23.07;14.73;;;19.40;99.90;;;;;;4979067;28;20954;-74
2023/05/09 06:02:52;;;;;;;20.70;14.80;;;19.40;99.90;;;;;;4995702;28;20433;-74
2023/05/09 06:05:31;;;;;;;21.00;15.53;;;19.40;99.90;;;;;;4962510;28;20418;-74
2023/05/09 06:08:01;;;;;;;21.47;15.80;;;19.40;99.90;;;;;;4963031;28;20448;-74
2023/05/09 06:10:30;;;;;;;19.30;14.90;;;19.40;99.90;;;;;;4978806;28;20497;-74
2023/05/09 06:12:56;;;;;;;17.73;14.53;;;19.40;99.90;;;;;;4978319;28;20562;-74
2023/05/09 06:15:23;;;;;;;20.83;15.27;;;19.40;99.90;;;;;;4962242;28;20410;-74
2023/05/09 06:17:52;;;;;;;20.13;14.37;;;19.40;99.90;;;;;;4978448;28;20409;-74
2023/05/09 06:20:24;;;;;;;17.60;14.33;;;19.40;99.90;;;;;;4962039;28;20836;-74
2023/05/09 06:22:55;;;;;;;18.30;14.30;;;19.40;99.90;;;;;;4961992;28;20441;-74
2023/05/09 06:25:21;;;;;;;18.60;15.50;;;19.40;99.90;;;;;;4978553;28;20402;-74
2023/05/09 06:27:47;;;;;;;20.03;14.17;;;19.40;99.90;;;;;;4978014;28;20436;-74
2023/05/09 06:30:18;;;;;;;18.50;14.73;;;19.40;99.90;;;;;;4978039;28;20425;-74
2023/05/09 06:32:46;;;;;;;14.93;13.33;;;19.40;99.90;;;;;;4994197;28;20445;-74
2023/05/09 06:35:12;;;;;;;18.07;14.10;;;19.40;99.90;;;;;;4995107;28;20406;-74
2023/05/09 06:37:40;;;;;;;15.37;13.20;;;19.40;99.90;;;;;;4961884;28;20425;-74
2023/05/09 06:40:11;;;;;;;19.20;14.20;;;19.40;99.90;;;;;;4977994;28;20831;-74
2023/05/09 06:42:37;;;;;;;17.53;14.50;;;19.40;99.90;;;;;;4977758;28;20456;-74
2023/05/09 06:45:03;;;;;;;17.70;13.17;;;19.40;99.90;;;;;;4961608;28;20421;-74
2023/05/09 06:47:29;;;;;;;14.97;12.07;;;19.40;99.90;;;;;;4977646;28;20898;-74
2023/05/09 06:49:57;;;;;;;14.77;12.90;;;19.40;99.90;;;;;;4995195;28;20401;-74
2023/05/09 06:52:23;;;;;;;15.30;12.50;;;19.40;99.90;;;;;;4977508;28;20494;-74
2023/05/09 06:54:50;;;;;;;18.23;12.47;;;19.40;99.90;;;;;;4994942;28;20803;-75
2023/05/09 06:57:22;;;;;;;17.50;12.70;;;19.40;99.90;;;;;;4994700;28;20435;-74
2023/05/09 06:59:50;;;;;;;15.57;13.00;;;19.50;99.90;;;;;;4977275;28;20404;-74
2023/05/09 07:02:16;;;;;;;12.07;10.60;;;19.50;99.90;;;;;;4977254;28;20446;-74
2023/05/09 07:04:45;;;;;;;14.83;12.30;;;19.50;99.90;;;;;;4961515;28;20448;-74
2023/05/09 07:07:11;;;;;;;13.80;12.40;;;19.50;99.90;;;;;;4994548;28;20495;-74
2023/05/09 07:09:37;;;;;;;13.93;12.20;;;19.50;99.90;;;;;;4977347;28;20421;-74
2023/05/09 07:12:09;;;;;;;14.70;13.03;;;19.50;99.90;;;;;;4994390;28;20824;-74
2023/05/09 07:14:36;;;;;;;13.00;11.70;;;19.50;99.90;;;;;;4994449;28;20479;-74
2023/05/09 07:17:02;;;;;;;14.93;12.03;;;19.50;99.90;;;;;;4994448;28;20401;-74
2023/05/09 07:19:28;;;;;;;15.33;11.20;;;19.50;99.90;;;;;;4961139;28;20797;-74
2023/05/09 07:21:54;;;;;;;13.00;11.40;;;19.50;99.90;;;;;;4976931;28;20476;-75
2023/05/09 07:24:22;;;;;;;12.53;11.17;;;19.50;99.90;;;;;;4961061;28;20406;-74
2023/05/09 07:26:51;;;;;;;12.87;11.50;;;19.50;99.90;;;;;;4976836;28;20984;-74
2023/05/09 07:29:19;;;;;;;11.60;10.13;;;19.50;99.90;;;;;;4960735;28;20440;-74
2023/05/09 07:31:45;;;;;;;11.43;10.20;;;19.50;99.90;;;;;;4959189;28;20438;-74
2023/05/09 07:34:14;;;;;;;10.93;9.83;;;19.60;99.90;;;;;;4959163;28;20449;-74
2023/05/09 07:36:45;;;;;;;13.73;11.80;;;19.60;99.90;;;;;;4992622;28;20404;-75
2023/05/09 07:39:11;;;;;;;11.23;10.03;;;19.60;99.90;;;;;;4992436;28;20875;-74
2023/05/09 07:41:39;;;;;;;12.17;10.97;;;19.60;99.90;;;;;;4974912;28;20790;-74
2023/05/09 07:44:08;;;;;;;13.40;11.60;;;19.60;99.90;;;;;;4974790;28;20513;-74
2023/05/09 07:46:39;;;;;;;12.70;11.37;;;19.60;99.90;;;;;;4973959;28;20449;-74
2023/05/09 07:49:05;;;;;;;14.50;11.47;;;19.60;99.90;;;;;;4941264;28;20454;-74
2023/05/09 07:51:31;;;;;;;12.47;11.10;;;19.60;99.90;;;;;;4955751;28;20512;-74
2023/05/09 07:53:57;;;;;;;10.80;9.70;;;19.60;99.90;;;;;;4972867;28;20527;-74
2023/05/09 07:56:26;;;;;;;12.30;11.00;;;19.60;99.90;;;;;;4972489;28;20486;-74
2023/05/09 07:58:52;;;;;;;11.60;10.40;;;19.60;99.90;;;;;;4955540;28;20398;-74
2023/05/09 08:01:20;;;;;;;11.47;10.27;;;19.60;99.90;;;;;;4939647;28;20817;-74
2023/05/09 08:03:48;;;;;;;13.77;11.10;;;19.60;99.90;;;;;;4939985;28;20449;-74
2023/05/09 08:06:14;;;;;;;13.60;11.67;;;19.60;99.90;;;;;;4955335;28;20409;-74
2023/05/09 08:08:40;;;;;;;11.53;10.43;;;19.60;99.90;;;;;;4939703;28;20411;-74
2023/05/09 08:11:07;;;;;;;11.60;9.73;;;19.60;99.90;;;;;;4971359;28;20441;-74
2023/05/09 08:13:35;;;;;;;11.10;9.57;;;19.60;99.90;;;;;;4971719;28;20445;-74
2023/05/09 08:16:03;;;;;;;11.13;9.90;;;19.70;99.90;;;;;;4955560;28;20437;-74
2023/05/09 08:18:31;;;;;;;11.00;9.90;;;19.70;99.90;;;;;;4955974;28;20483;-74
2023/05/09 08:21:00;;;;;;;10.03;9.13;;;19.70;99.90;;;;;;4972337;28;20971;-74
2023/05/09 08:23:29;;;;;;;11.63;10.57;;;19.60;99.90;;;;;;4924029;28;20443;-74
2023/05/09 08:25:57;;;;;;;11.43;10.33;;;19.70;99.90;;;;;;4955287;28;20405;-74
2023/05/09 08:28:24;;;;;;;10.70;9.70;;;19.70;99.90;;;;;;4954218;28;20452;-74
2023/05/09 08:30:50;;;;;;;11.20;10.07;;;19.70;99.90;;;;;;4972601;28;20513;-74
2023/05/09 08:33:21;;;;;;;11.70;10.60;;;19.70;99.90;;;;;;4970885;28;20462;-74
2023/05/09 08:35:53;;;;;;;9.70;8.80;;;19.70;99.90;;;;;;4955388;28;20461;-74
2023/05/09 08:38:23;;;;;;;9.57;8.53;;;19.70;99.90;;;;;;4972463;28;20465;-74
2023/05/09 08:40:49;;;;;;;10.07;8.93;;;19.70;99.90;;;;;;4939100;28;20948;-74
2023/05/09 08:43:19;;;;;;;10.20;9.10;;;19.80;99.90;;;;;;4955151;28;20454;-74
2023/05/09 08:45:57;;;;;;;10.07;9.07;;;19.80;99.90;;;;;;4939348;28;20423;-74
2023/05/09 08:48:25;;;;;;;9.00;8.20;;;19.80;99.90;;;;;;4939062;28;20892;-74
2023/05/09 08:50:53;;;;;;;9.30;8.47;;;19.80;99.90;;;;;;4955117;28;20405;-74
2023/05/09 08:53:20;;;;;;;8.50;7.50;;;19.80;99.90;;;;;;4954995;28;20465;-74
2023/05/09 08:55:52;;;;;;;9.23;7.60;;;19.80;99.90;;;;;;4971003;28;20413;-74
2023/05/09 08:58:19;;;;;;;8.50;7.70;;;19.80;99.90;;;;;;4940677;28;20445;-74
2023/05/09 09:00:49;;;;;;;8.03;7.23;;;19.80;99.90;;;;;;4958533;28;20460;-74
2023/05/09 09:03:16;;;;;;;8.30;7.60;;;19.80;99.90;;;;;;4958165;28;20476;-74
2023/05/09 09:05:47;;;;;;;7.73;7.03;;;19.90;99.90;;;;;;4974279;28;20406;-74
2023/05/09 09:08:16;;;;;;;9.20;8.00;;;19.90;99.90;;;;;;4975760;28;20410;-74
2023/05/09 09:10:46;;;;;;;9.30;7.93;;;19.90;99.90;;;;;;4974781;28;20413;-74
2023/05/09 09:13:13;;;;;;;8.03;7.23;;;19.90;99.90;;;;;;4942156;28;20460;-74
2023/05/09 09:15:44;;;;;;;9.20;8.40;;;19.90;99.90;;;;;;4958429;28;20453;-74
2023/05/09 09:18:22;;;;;;;8.60;7.77;;;19.90;99.90;;;;;;4974266;28;20434;-74
2023/05/09 09:20:56;;;;;;;7.57;6.93;;;20.00;99.90;;;;;;4974371;28;20541;-74
2023/05/09 09:23:25;;;;;;;7.23;6.63;;;20.00;99.90;;;;;;4958083;28;20461;-74
2023/05/09 09:26:03;;;;;;;7.00;6.40;;;20.00;99.90;;;;;;4942197;28;20933;-74
2023/05/09 09:28:29;;;;;;;7.23;6.63;;;20.10;99.90;;;;;;4975272;28;20407;-74
2023/05/09 09:30:58;;;;;;;7.20;6.50;;;20.10;99.90;;;;;;4958659;28;20494;-74
2023/05/09 09:33:28;;;;;;;6.70;6.10;;;20.10;99.90;;;;;;4957950;28;20438;-74
2023/05/09 09:35:55;;;;;;;7.20;6.60;;;20.10;99.90;;;;;;4941798;28;20426;-74
2023/05/09 09:38:23;;;;;;;6.47;5.87;;;20.10;99.90;;;;;;4975095;28;20554;-74
2023/05/09 09:40:57;;;;;;;7.17;6.40;;;20.10;99.90;;;;;;4973849;28;20446;-74
2023/05/09 09:43:32;;;;;;;6.33;5.73;;;20.20;99.90;;;;;;4925960;28;20479;-74
2023/05/09 09:46:02;;;;;;;8.40;5.67;;;20.20;99.90;;;;;;4941934;28;20501;-74
2023/05/09 09:48:33;;;;;;;5.93;5.40;;;20.20;99.90;;;;;;4941490;28;20427;-74
2023/05/09 09:51:20;;;;;;;5.80;5.20;;;20.20;99.90;;;;;;4957859;28;20464;-74
2023/05/09 09:53:52;;;;;;;6.70;6.10;;;20.20;99.70;;;;;;4973466;28;20444;-74
2023/05/09 09:56:17;;;;;;;5.47;5.03;;;20.30;99.70;;;;;;4973667;28;20849;-74
2023/05/09 09:58:44;;;;;;;6.33;5.27;;;20.30;99.70;;;;;;4957715;28;20726;-74
2023/05/09 10:01:12;;;;;;;5.50;5.00;;;20.30;99.70;;;;;;4973286;28;20447;-74
2023/05/09 10:03:43;;;;;;;5.17;4.67;;;20.30;99.70;;;;;;4973440;28;20429;-74
2023/05/09 10:06:10;;;;;;;5.63;5.13;;;20.30;99.70;;;;;;4974565;28;20419;-74
2023/05/09 10:08:37;;;;;;;6.07;5.17;;;20.30;99.70;;;;;;4957087;28;20398;-74
2023/05/09 10:11:07;;;;;;;4.60;4.20;;;20.30;99.70;;;;;;4974827;28;20422;-74
2023/05/09 10:13:35;;;;;;;5.73;4.87;;;20.40;99.60;;;;;;4957401;28;20472;-74
2023/05/09 10:16:03;;;;;;;5.57;5.07;;;20.40;99.50;;;;;;4957161;28;20556;-74
2023/05/09 10:18:32;;;;;;;5.20;4.77;;;20.40;99.50;;;;;;4957666;28;20430;-74
2023/05/09 10:21:03;;;;;;;4.83;4.43;;;20.40;99.40;;;;;;4974592;28;20541;-74
2023/05/09 10:23:36;;;;;;;4.90;4.50;;;20.40;99.40;;;;;;4973279;28;20429;-74
2023/05/09 10:26:10;;;;;;;5.17;4.77;;;20.40;99.30;;;;;;4974098;28;20751;-74
2023/05/09 10:28:43;;;;;;;4.80;4.40;;;20.40;99.30;;;;;;4957230;28;20454;-74
2023/05/09 10:31:19;;;;;;;5.10;4.60;;;20.50;99.30;;;;;;4956946;28;20799;-74
2023/05/09 10:33:54;;;;;;;5.10;4.57;;;20.50;99.20;;;;;;4972998;28;20442;-74
2023/05/09 10:36:22;;;;;;;5.50;4.93;;;20.50;99.20;;;;;;4956747;28;20422;-74
2023/05/09 10:38:52;;;;;;;4.80;4.30;;;20.50;99.10;;;;;;4956896;28;20709;-74
2023/05/09 10:41:22;;;;;;;4.73;4.30;;;20.50;99.00;;;;;;4972602;28;20473;-74
2023/05/09 10:43:48;;;;;;;6.30;5.20;;;20.50;98.90;;;;;;4973833;28;20441;-74
2023/05/09 10:46:15;;;;;;;4.20;3.90;;;20.60;98.90;;;;;;4956731;28;20485;-75
2023/05/09 10:48:42;;;;;;;4.70;4.30;;;20.60;98.90;;;;;;4956388;28;20446;-74
2023/05/09 10:51:11;;;;;;;5.90;4.27;;;20.60;98.80;;;;;;4973774;28;20411;-74
2023/05/09 10:53:44;;;;;;;4.70;4.10;;;20.60;98.80;;;;;;4956648;28;20461;-74
2023/05/09 10:56:34;;;;;;;4.17;3.83;;;20.60;98.80;;;;;;4973492;28;20472;-75
2023/05/09 10:59:06;;;;;;;5.77;4.50;;;20.60;98.70;;;;;;4956013;28;20990;-74
2023/05/09 11:01:39;;;;;;;4.30;4.00;;;20.60;98.60;;;;;;4956111;28;20475;-74
2023/05/09 11:04:10;;;;;;;4.40;3.93;;;20.70;98.60;;;;;;4973570;28;20438;-74
2023/05/09 11:06:48;;;;;;;4.13;3.83;;;20.60;98.60;;;;;;4973514;28;20415;-74
2023/05/09 11:09:33;;;;;;;4.70;4.10;;;20.70;98.60;;;;;;4973709;28;20414;-74
2023/05/09 11:12:08;;;;;;;4.73;3.80;;;20.70;98.60;;;;;;4973196;28;20457;-74
2023/05/09 11:14:34;;;;;;;5.07;3.97;;;20.70;98.70;;;;;;4956427;28;20525;-74
2023/05/09 11:17:08;;;;;;;5.07;4.33;;;20.70;98.70;;;;;;4956346;28;20413;-74
2023/05/09 11:19:58;;;;;;;4.33;3.93;;;20.80;98.70;;;;;;4973447;28;20422;-74
2023/05/09 11:22:31;;;;;;;5.80;4.27;;;20.80;98.70;;;;;;4955572;28;20446;-74
2023/05/09 11:25:11;;;;;;;6.00;4.47;;;20.80;98.80;;;;;;4973347;28;20866;-74
2023/05/09 11:27:45;;;;;;;4.87;4.47;;;20.80;98.80;;;;;;4955998;28;20973;-74
2023/05/09 11:30:14;;;;;;;4.57;4.17;;;20.80;98.70;;;;;;4956211;28;21106;-74
2023/05/09 11:32:52;;;;;;;4.60;4.20;;;20.80;98.60;;;;;;4955603;28;20451;-74
2023/05/09 11:35:22;;;;;;;4.57;4.27;;;20.90;98.70;;;;;;4956506;28;20443;-74
2023/05/09 11:37:51;;;;;;;6.77;3.67;;;20.90;98.70;;;;;;4971829;28;20830;-74
2023/05/09 11:40:19;;;;;;;5.00;4.57;;;20.90;98.70;;;;;;4971924;28;21063;-74
2023/05/09 11:42:54;;;;;;;4.70;4.30;;;21.00;98.70;;;;;;4972871;28;20466;-74
2023/05/09 11:45:27;;;;;;;4.53;4.13;;;21.00;98.70;;;;;;4955784;28;20407;-74
2023/05/09 11:47:55;;;;;;;7.23;4.13;;;21.00;98.70;;;;;;4920887;29;20523;-74
2023/05/09 11:50:22;;;;;;;4.13;3.40;;;21.00;98.60;;;;;;4953424;29;21004;-74
2023/05/09 11:52:49;;;;;;;3.83;3.50;;;21.00;98.60;;;;;;4953614;29;20496;-74
2023/05/09 11:55:17;;;;;;;4.20;3.80;;;21.00;98.50;;;;;;4920820;29;20517;-74
2023/05/09 11:57:48;;;;;;;4.33;3.93;;;21.10;98.50;;;;;;4936519;29;21011;-74
2023/05/09 12:00:20;;;;;;;3.93;3.53;;;21.10;98.40;;;;;;4953795;29;20474;-74
2023/05/09 12:02:49;;;;;;;4.03;3.73;;;21.10;98.50;;;;;;4921218;29;20538;-74
2023/05/09 12:05:22;;;;;;;3.90;3.50;;;21.10;98.40;;;;;;4952066;29;20418;-74
2023/05/09 12:07:49;;;;;;;4.70;4.10;;;21.20;98.70;;;;;;4952521;29;20815;-74
2023/05/09 12:10:24;;;;;;;4.20;3.80;;;21.20;98.40;;;;;;4953560;29;20427;-74
2023/05/09 12:12:55;;;;;;;4.23;3.83;;;21.20;98.40;;;;;;4936488;29;20450;-74
2023/05/09 12:15:24;;;;;;;4.03;3.73;;;21.20;98.30;;;;;;4952322;29;20803;-75
2023/05/09 12:18:04;;;;;;;4.73;3.77;;;21.20;98.30;;;;;;4928676;28;20851;-74
2023/05/09 12:20:44;;;;;;;3.40;3.20;;;21.30;98.30;;;;;;4971530;28;20533;-74
2023/05/09 12:23:13;;;;;;;5.03;3.77;;;21.30;98.20;;;;;;4955620;28;20542;-74
2023/05/09 12:25:46;;;;;;;6.67;3.53;;;21.30;98.10;;;;;;4955439;28;20413;-74
2023/05/09 12:28:13;;;;;;;3.93;3.63;;;21.30;98.10;;;;;;4972666;28;20913;-74
2023/05/09 12:30:39;;;;;;;3.40;3.13;;;21.30;98.00;;;;;;4955554;28;20465;-74
2023/05/09 12:33:11;;;;;;;4.63;3.93;;;21.30;97.90;;;;;;4942395;28;20459;-74
2023/05/09 12:35:46;;;;;;;3.77;3.47;;;21.30;97.90;;;;;;4976779;28;20418;-74
2023/05/09 12:38:23;;;;;;;3.60;3.30;;;21.40;97.90;;;;;;4943487;28;20416;-74
2023/05/09 12:41:03;;;;;;;4.13;3.73;;;21.40;97.80;;;;;;4975104;28;20442;-74
2023/05/09 12:43:33;;;;;;;4.00;3.70;;;21.40;97.80;;;;;;4943171;28;20454;-74
2023/05/09 12:46:05;;;;;;;3.73;3.43;;;21.40;97.80;;;;;;4959202;28;20794;-74
2023/05/09 12:48:37;;;;;;;3.07;2.80;;;21.40;97.70;;;;;;4942911;28;20434;-74
2023/05/09 12:51:06;;;;;;;3.73;3.43;;;21.50;97.80;;;;;;4958991;28;20918;-74